sensor_id;sensor_type;location;lat;lon;timestamp;P1;durP1;ratioP1;P2;durP2;ratioP2
47856;SDS011;33618;49.972;8.242;2022-12-31T00:01:52;0.63;;;0.63;;
47856;SDS011;33618;49.972;8.242;2022-12-31T00:04:19;2.17;;;0.82;;
47856;SDS011;33618;49.972;8.242;2022-12-31T00:06:45;0.80;;;0.80;;
47856;SDS011;33618;49.972;8.242;2022-12-31T00:09:12;0.70;;;0.70;;
47856;SDS011;33618;49.972;8.242;2022-12-31T00:11:39;0.80;;;0.80;;
47856;SDS011;33618;49.972;8.242;2022-12-31T00:14:06;1.27;;;0.75;;
47856;SDS011;33618;49.972;8.242;2022-12-31T00:16:35;1.98;;;0.75;;
47856;SDS011;33618;49.972;8.242;2022-12-31T00:19:05;0.70;;;0.70;;
47856;SDS011;33618;49.972;8.242;2022-12-31T00:21:34;0.55;;;0.55;;
47856;SDS011;33618;49.972;8.242;2022-12-31T00:24:02;1.48;;;0.80;;
47856;SDS011;33618;49.972;8.242;2022-12-31T00:26:30;0.70;;;0.70;;
47856;SDS011;33618;49.972;8.242;2022-12-31T00:28:59;0.88;;;0.70;;
47856;SDS011;33618;49.972;8.242;2022-12-31T00:31:28;0.75;;;0.70;;
47856;SDS011;33618;49.972;8.242;2022-12-31T00:33:57;0.70;;;0.70;;
47856;SDS011;33618;49.972;8.242;2022-12-31T00:36:42;0.50;;;0.50;;
47856;SDS011;33618;49.972;8.242;2022-12-31T00:39:11;0.57;;;0.57;;
47856;SDS011;33618;49.972;8.242;2022-12-31T00:41:38;0.50;;;0.50;;
47856;SDS011;33618;49.972;8.242;2022-12-31T00:44:05;0.65;;;0.65;;
47856;SDS011;33618;49.972;8.242;2022-12-31T00:46:32;0.80;;;0.80;;
47856;SDS011;33618;49.972;8.242;2022-12-31T00:48:59;0.60;;;0.60;;
47856;SDS011;33618;49.972;8.242;2022-12-31T00:51:26;1.00;;;0.60;;
47856;SDS011;33618;49.972;8.242;2022-12-31T00:53:54;0.60;;;0.60;;
47856;SDS011;33618;49.972;8.242;2022-12-31T00:56:23;0.93;;;0.60;;
47856;SDS011;33618;49.972;8.242;2022-12-31T00:58:52;0.50;;;0.50;;
47856;SDS011;33618;49.972;8.242;2022-12-31T01:01:22;0.50;;;0.50;;
47856;SDS011;33618;49.972;8.242;2022-12-31T01:03:50;0.38;;;0.38;;
47856;SDS011;33618;49.972;8.242;2022-12-31T01:06:19;0.50;;;0.50;;
47856;SDS011;33618;49.972;8.242;2022-12-31T01:08:47;1.85;;;0.60;;
47856;SDS011;33618;49.972;8.242;2022-12-31T01:11:15;0.50;;;0.50;;
47856;SDS011;33618;49.972;8.242;2022-12-31T01:16:17;2.33;;;0.80;;
47856;SDS011;33618;49.972;8.242;2022-12-31T01:18:47;0.65;;;0.65;;
47856;SDS011;33618;49.972;8.242;2022-12-31T01:21:14;0.50;;;0.50;;
47856;SDS011;33618;49.972;8.242;2022-12-31T01:23:42;1.20;;;0.70;;
47856;SDS011;33618;49.972;8.242;2022-12-31T01:26:11;0.60;;;0.60;;
47856;SDS011;33618;49.972;8.242;2022-12-31T01:28:39;0.90;;;0.90;;
47856;SDS011;33618;49.972;8.242;2022-12-31T01:31:08;0.88;;;0.60;;
47856;SDS011;33618;49.972;8.242;2022-12-31T01:33:37;0.70;;;0.60;;
47856;SDS011;33618;49.972;8.242;2022-12-31T01:36:05;1.55;;;0.68;;
47856;SDS011;33618;49.972;8.242;2022-12-31T01:38:35;0.68;;;0.68;;
47856;SDS011;33618;49.972;8.242;2022-12-31T01:41:02;0.80;;;0.80;;
47856;SDS011;33618;49.972;8.242;2022-12-31T01:46:32;2.20;;;0.75;;
47856;SDS011;33618;49.972;8.242;2022-12-31T01:51:43;0.98;;;0.82;;
47856;SDS011;33618;49.972;8.242;2022-12-31T01:54:14;0.70;;;0.70;;
47856;SDS011;33618;49.972;8.242;2022-12-31T01:56:44;0.90;;;0.90;;
47856;SDS011;33618;49.972;8.242;2022-12-31T01:59:16;1.05;;;0.88;;
47856;SDS011;33618;49.972;8.242;2022-12-31T02:01:44;0.70;;;0.70;;
47856;SDS011;33618;49.972;8.242;2022-12-31T02:04:13;0.68;;;0.68;;
47856;SDS011;33618;49.972;8.242;2022-12-31T02:09:41;1.75;;;0.90;;
47856;SDS011;33618;49.972;8.242;2022-12-31T02:12:08;0.70;;;0.70;;
47856;SDS011;33618;49.972;8.242;2022-12-31T02:14:38;0.70;;;0.70;;
47856;SDS011;33618;49.972;8.242;2022-12-31T02:26:41;1.10;;;0.90;;
47856;SDS011;33618;49.972;8.242;2022-12-31T02:36:04;0.90;;;0.90;;
47856;SDS011;33618;49.972;8.242;2022-12-31T02:38:39;1.05;;;0.80;;
47856;SDS011;33618;49.972;8.242;2022-12-31T02:41:13;0.85;;;0.80;;
47856;SDS011;33618;49.972;8.242;2022-12-31T02:44:17;1.10;;;0.95;;
47856;SDS011;33618;49.972;8.242;2022-12-31T02:50:09;2.58;;;1.10;;
47856;SDS011;33618;49.972;8.242;2022-12-31T02:52:52;2.20;;;0.98;;
47856;SDS011;33618;49.972;8.242;2022-12-31T02:55:35;1.15;;;1.00;;
47856;SDS011;33618;49.972;8.242;2022-12-31T02:58:27;1.30;;;1.20;;
47856;SDS011;33618;49.972;8.242;2022-12-31T03:01:25;0.98;;;0.98;;
47856;SDS011;33618;49.972;8.242;2022-12-31T03:04:17;1.30;;;1.20;;
47856;SDS011;33618;49.972;8.242;2022-12-31T03:07:02;1.38;;;1.27;;
47856;SDS011;33618;49.972;8.242;2022-12-31T03:09:40;1.38;;;1.27;;
47856;SDS011;33618;49.972;8.242;2022-12-31T03:12:09;2.90;;;1.40;;
47856;SDS011;33618;49.972;8.242;2022-12-31T03:14:56;1.40;;;1.30;;
47856;SDS011;33618;49.972;8.242;2022-12-31T03:17:24;2.47;;;1.30;;
47856;SDS011;33618;49.972;8.242;2022-12-31T03:19:51;2.00;;;1.20;;
47856;SDS011;33618;49.972;8.242;2022-12-31T03:22:39;1.48;;;1.30;;
47856;SDS011;33618;49.972;8.242;2022-12-31T03:28:55;0.98;;;0.98;;
47856;SDS011;33618;49.972;8.242;2022-12-31T03:31:22;1.45;;;1.15;;
47856;SDS011;33618;49.972;8.242;2022-12-31T03:33:49;2.08;;;1.83;;
47856;SDS011;33618;49.972;8.242;2022-12-31T03:36:16;1.13;;;1.10;;
47856;SDS011;33618;49.972;8.242;2022-12-31T03:38:43;1.88;;;1.00;;
47856;SDS011;33618;49.972;8.242;2022-12-31T03:41:17;2.22;;;1.25;;
47856;SDS011;33618;49.972;8.242;2022-12-31T03:43:44;1.05;;;1.05;;
47856;SDS011;33618;49.972;8.242;2022-12-31T03:46:11;4.43;;;1.30;;
47856;SDS011;33618;49.972;8.242;2022-12-31T03:48:39;3.08;;;1.20;;
47856;SDS011;33618;49.972;8.242;2022-12-31T03:51:06;1.85;;;1.30;;
47856;SDS011;33618;49.972;8.242;2022-12-31T03:53:33;1.58;;;1.10;;
47856;SDS011;33618;49.972;8.242;2022-12-31T03:56:00;1.55;;;1.25;;
47856;SDS011;33618;49.972;8.242;2022-12-31T03:58:28;1.25;;;1.15;;
47856;SDS011;33618;49.972;8.242;2022-12-31T04:00:55;1.55;;;1.20;;
47856;SDS011;33618;49.972;8.242;2022-12-31T04:03:22;1.45;;;1.35;;
47856;SDS011;33618;49.972;8.242;2022-12-31T04:05:55;2.70;;;1.15;;
47856;SDS011;33618;49.972;8.242;2022-12-31T04:08:23;1.30;;;1.20;;
47856;SDS011;33618;49.972;8.242;2022-12-31T04:10:50;1.77;;;1.20;;
47856;SDS011;33618;49.972;8.242;2022-12-31T04:13:17;1.40;;;1.20;;
47856;SDS011;33618;49.972;8.242;2022-12-31T04:15:47;1.30;;;1.20;;
47856;SDS011;33618;49.972;8.242;2022-12-31T04:18:16;2.53;;;1.50;;
47856;SDS011;33618;49.972;8.242;2022-12-31T04:20:43;1.30;;;1.20;;
47856;SDS011;33618;49.972;8.242;2022-12-31T04:23:10;4.35;;;1.35;;
47856;SDS011;33618;49.972;8.242;2022-12-31T04:25:39;1.40;;;1.23;;
47856;SDS011;33618;49.972;8.242;2022-12-31T04:28:07;3.05;;;1.52;;
47856;SDS011;33618;49.972;8.242;2022-12-31T04:30:33;2.75;;;1.42;;
47856;SDS011;33618;49.972;8.242;2022-12-31T04:33:00;1.45;;;1.30;;
47856;SDS011;33618;49.972;8.242;2022-12-31T04:35:27;2.35;;;1.30;;
47856;SDS011;33618;49.972;8.242;2022-12-31T04:37:54;1.65;;;1.10;;
47856;SDS011;33618;49.972;8.242;2022-12-31T04:40:22;2.33;;;1.20;;
47856;SDS011;33618;49.972;8.242;2022-12-31T04:42:49;3.35;;;1.35;;
47856;SDS011;33618;49.972;8.242;2022-12-31T04:45:16;2.97;;;1.42;;
47856;SDS011;33618;49.972;8.242;2022-12-31T04:47:43;3.47;;;1.40;;
47856;SDS011;33618;49.972;8.242;2022-12-31T04:50:11;1.40;;;1.30;;
47856;SDS011;33618;49.972;8.242;2022-12-31T04:52:38;3.03;;;1.15;;
47856;SDS011;33618;49.972;8.242;2022-12-31T04:55:08;3.10;;;1.00;;
47856;SDS011;33618;49.972;8.242;2022-12-31T04:57:35;1.20;;;1.10;;
47856;SDS011;33618;49.972;8.242;2022-12-31T05:00:02;1.25;;;1.10;;
47856;SDS011;33618;49.972;8.242;2022-12-31T05:02:30;2.10;;;1.00;;
47856;SDS011;33618;49.972;8.242;2022-12-31T05:04:57;1.10;;;1.00;;
47856;SDS011;33618;49.972;8.242;2022-12-31T05:07:24;1.00;;;0.90;;
47856;SDS011;33618;49.972;8.242;2022-12-31T05:09:52;3.28;;;1.00;;
47856;SDS011;33618;49.972;8.242;2022-12-31T05:12:19;1.20;;;0.90;;
47856;SDS011;33618;49.972;8.242;2022-12-31T05:14:46;1.85;;;0.90;;
47856;SDS011;33618;49.972;8.242;2022-12-31T05:17:12;1.63;;;1.05;;
47856;SDS011;33618;49.972;8.242;2022-12-31T05:19:39;0.98;;;0.75;;
47856;SDS011;33618;49.972;8.242;2022-12-31T05:22:06;0.77;;;0.77;;
47856;SDS011;33618;49.972;8.242;2022-12-31T05:24:54;1.05;;;0.90;;
47856;SDS011;33618;49.972;8.242;2022-12-31T05:27:21;1.00;;;0.90;;
47856;SDS011;33618;49.972;8.242;2022-12-31T05:29:48;1.00;;;0.90;;
47856;SDS011;33618;49.972;8.242;2022-12-31T05:32:15;1.70;;;1.00;;
47856;SDS011;33618;49.972;8.242;2022-12-31T05:34:42;0.85;;;0.85;;
47856;SDS011;33618;49.972;8.242;2022-12-31T05:37:09;1.27;;;1.08;;
47856;SDS011;33618;49.972;8.242;2022-12-31T05:39:37;1.10;;;1.00;;
47856;SDS011;33618;49.972;8.242;2022-12-31T05:42:04;1.05;;;0.80;;
47856;SDS011;33618;49.972;8.242;2022-12-31T05:44:31;2.47;;;1.10;;
47856;SDS011;33618;49.972;8.242;2022-12-31T05:46:58;1.17;;;0.80;;
47856;SDS011;33618;49.972;8.242;2022-12-31T05:49:25;2.42;;;1.30;;
47856;SDS011;33618;49.972;8.242;2022-12-31T05:51:52;0.90;;;0.90;;
47856;SDS011;33618;49.972;8.242;2022-12-31T05:54:18;1.35;;;1.08;;
47856;SDS011;33618;49.972;8.242;2022-12-31T05:56:45;2.22;;;1.00;;
47856;SDS011;33618;49.972;8.242;2022-12-31T05:59:12;0.80;;;0.80;;
47856;SDS011;33618;49.972;8.242;2022-12-31T06:01:39;1.08;;;0.93;;
47856;SDS011;33618;49.972;8.242;2022-12-31T06:04:06;2.15;;;1.10;;
47856;SDS011;33618;49.972;8.242;2022-12-31T06:06:33;2.20;;;1.00;;
47856;SDS011;33618;49.972;8.242;2022-12-31T06:09:00;0.90;;;0.90;;
47856;SDS011;33618;49.972;8.242;2022-12-31T06:11:28;2.00;;;0.90;;
47856;SDS011;33618;49.972;8.242;2022-12-31T06:13:55;1.42;;;0.93;;
47856;SDS011;33618;49.972;8.242;2022-12-31T06:16:23;3.25;;;1.02;;
47856;SDS011;33618;49.972;8.242;2022-12-31T06:18:50;0.90;;;0.90;;
47856;SDS011;33618;49.972;8.242;2022-12-31T06:21:18;0.90;;;0.90;;
47856;SDS011;33618;49.972;8.242;2022-12-31T06:23:46;1.00;;;0.90;;
47856;SDS011;33618;49.972;8.242;2022-12-31T06:26:14;2.00;;;1.00;;
47856;SDS011;33618;49.972;8.242;2022-12-31T06:28:41;1.75;;;1.05;;
47856;SDS011;33618;49.972;8.242;2022-12-31T06:31:10;1.27;;;1.10;;
47856;SDS011;33618;49.972;8.242;2022-12-31T06:33:39;1.50;;;1.10;;
47856;SDS011;33618;49.972;8.242;2022-12-31T06:36:07;3.35;;;1.15;;
47856;SDS011;33618;49.972;8.242;2022-12-31T06:38:37;0.82;;;0.80;;
47856;SDS011;33618;49.972;8.242;2022-12-31T06:41:06;2.92;;;1.00;;
47856;SDS011;33618;49.972;8.242;2022-12-31T06:43:35;2.85;;;1.00;;
47856;SDS011;33618;49.972;8.242;2022-12-31T06:46:04;1.17;;;0.90;;
47856;SDS011;33618;49.972;8.242;2022-12-31T06:48:32;1.42;;;1.00;;
47856;SDS011;33618;49.972;8.242;2022-12-31T06:51:07;1.70;;;0.88;;
47856;SDS011;33618;49.972;8.242;2022-12-31T06:53:43;0.80;;;0.80;;
47856;SDS011;33618;49.972;8.242;2022-12-31T06:56:47;0.95;;;0.93;;
47856;SDS011;33618;49.972;8.242;2022-12-31T06:59:16;1.17;;;0.98;;
47856;SDS011;33618;49.972;8.242;2022-12-31T07:01:56;2.85;;;0.90;;
47856;SDS011;33618;49.972;8.242;2022-12-31T07:15:13;0.88;;;0.80;;
47856;SDS011;33618;49.972;8.242;2022-12-31T07:17:48;2.45;;;1.00;;
47856;SDS011;33618;49.972;8.242;2022-12-31T07:20:31;0.93;;;0.88;;
47856;SDS011;33618;49.972;8.242;2022-12-31T07:22:58;1.55;;;1.00;;
47856;SDS011;33618;49.972;8.242;2022-12-31T07:25:25;2.78;;;1.00;;
47856;SDS011;33618;49.972;8.242;2022-12-31T07:49:02;1.30;;;1.08;;
47856;SDS011;33618;49.972;8.242;2022-12-31T07:51:30;1.38;;;1.13;;
47856;SDS011;33618;49.972;8.242;2022-12-31T07:53:57;1.27;;;1.17;;
47856;SDS011;33618;49.972;8.242;2022-12-31T07:56:24;1.65;;;1.30;;
47856;SDS011;33618;49.972;8.242;2022-12-31T08:02:33;2.50;;;1.30;;
47856;SDS011;33618;49.972;8.242;2022-12-31T08:12:48;2.45;;;1.20;;
47856;SDS011;33618;49.972;8.242;2022-12-31T08:15:16;1.55;;;1.40;;
47856;SDS011;33618;49.972;8.242;2022-12-31T08:17:44;1.30;;;1.20;;
47856;SDS011;33618;49.972;8.242;2022-12-31T08:20:13;1.40;;;1.30;;
47856;SDS011;33618;49.972;8.242;2022-12-31T08:25:59;1.42;;;1.33;;
47856;SDS011;33618;49.972;8.242;2022-12-31T08:31:14;1.70;;;1.30;;
47856;SDS011;33618;49.972;8.242;2022-12-31T08:45:18;3.50;;;1.30;;
47856;SDS011;33618;49.972;8.242;2022-12-31T08:47:59;1.63;;;1.40;;
47856;SDS011;33618;49.972;8.242;2022-12-31T08:50:29;2.17;;;1.50;;
47856;SDS011;33618;49.972;8.242;2022-12-31T08:52:56;1.50;;;1.35;;
47856;SDS011;33618;49.972;8.242;2022-12-31T08:55:23;1.90;;;1.55;;
47856;SDS011;33618;49.972;8.242;2022-12-31T08:58:09;2.38;;;1.50;;
47856;SDS011;33618;49.972;8.242;2022-12-31T09:00:43;1.52;;;1.40;;
47856;SDS011;33618;49.972;8.242;2022-12-31T09:03:25;1.90;;;1.40;;
47856;SDS011;33618;49.972;8.242;2022-12-31T09:19:42;1.63;;;1.45;;
47856;SDS011;33618;49.972;8.242;2022-12-31T09:22:09;2.08;;;1.40;;
47856;SDS011;33618;49.972;8.242;2022-12-31T09:24:37;1.83;;;1.50;;
47856;SDS011;33618;49.972;8.242;2022-12-31T09:43:07;3.97;;;1.50;;
47856;SDS011;33618;49.972;8.242;2022-12-31T09:49:06;2.55;;;1.40;;
47856;SDS011;33618;49.972;8.242;2022-12-31T09:51:46;5.53;;;1.70;;
47856;SDS011;33618;49.972;8.242;2022-12-31T09:55:12;1.67;;;1.50;;
47856;SDS011;33618;49.972;8.242;2022-12-31T10:00:42;1.92;;;1.50;;
47856;SDS011;33618;49.972;8.242;2022-12-31T10:15:15;1.67;;;1.40;;
47856;SDS011;33618;49.972;8.242;2022-12-31T10:34:15;2.58;;;1.48;;
47856;SDS011;33618;49.972;8.242;2022-12-31T10:36:50;1.75;;;1.30;;
47856;SDS011;33618;49.972;8.242;2022-12-31T10:58:43;2.60;;;1.60;;
47856;SDS011;33618;49.972;8.242;2022-12-31T11:10:25;3.85;;;1.45;;
47856;SDS011;33618;49.972;8.242;2022-12-31T11:15:34;2.20;;;1.50;;
47856;SDS011;33618;49.972;8.242;2022-12-31T11:20:58;2.67;;;1.48;;
47856;SDS011;33618;49.972;8.242;2022-12-31T11:23:38;5.15;;;1.60;;
47856;SDS011;33618;49.972;8.242;2022-12-31T11:29:29;2.08;;;1.70;;
47856;SDS011;33618;49.972;8.242;2022-12-31T11:34:50;2.20;;;1.55;;
47856;SDS011;33618;49.972;8.242;2022-12-31T11:51:30;2.53;;;1.50;;
47856;SDS011;33618;49.972;8.242;2022-12-31T11:59:42;1.92;;;1.50;;
47856;SDS011;33618;49.972;8.242;2022-12-31T12:02:19;1.40;;;1.30;;
47856;SDS011;33618;49.972;8.242;2022-12-31T12:04:56;1.48;;;1.38;;
47856;SDS011;33618;49.972;8.242;2022-12-31T12:07:35;3.90;;;1.60;;
47856;SDS011;33618;49.972;8.242;2022-12-31T12:10:05;3.67;;;1.52;;
47856;SDS011;33618;49.972;8.242;2022-12-31T12:13:09;1.90;;;1.60;;
47856;SDS011;33618;49.972;8.242;2022-12-31T12:15:41;4.43;;;1.58;;
47856;SDS011;33618;49.972;8.242;2022-12-31T12:18:24;5.85;;;1.70;;
47856;SDS011;33618;49.972;8.242;2022-12-31T12:23:37;3.40;;;1.35;;
47856;SDS011;33618;49.972;8.242;2022-12-31T12:26:05;3.35;;;1.58;;
47856;SDS011;33618;49.972;8.242;2022-12-31T12:28:50;1.95;;;1.30;;
47856;SDS011;33618;49.972;8.242;2022-12-31T12:31:19;1.58;;;1.48;;
47856;SDS011;33618;49.972;8.242;2022-12-31T12:33:49;2.35;;;1.40;;
47856;SDS011;33618;49.972;8.242;2022-12-31T12:36:17;2.60;;;1.52;;
47856;SDS011;33618;49.972;8.242;2022-12-31T12:38:46;2.65;;;1.50;;
47856;SDS011;33618;49.972;8.242;2022-12-31T12:41:21;3.83;;;1.70;;
47856;SDS011;33618;49.972;8.242;2022-12-31T12:44:00;3.25;;;1.80;;
47856;SDS011;33618;49.972;8.242;2022-12-31T12:46:33;15.85;;;1.80;;
47856;SDS011;33618;49.972;8.242;2022-12-31T12:49:17;1.30;;;1.20;;
47856;SDS011;33618;49.972;8.242;2022-12-31T12:58:03;2.72;;;1.27;;
47856;SDS011;33618;49.972;8.242;2022-12-31T13:01:14;2.00;;;1.40;;
47856;SDS011;33618;49.972;8.242;2022-12-31T13:07:22;1.73;;;1.45;;
47856;SDS011;33618;49.972;8.242;2022-12-31T13:12:38;3.20;;;1.50;;
47856;SDS011;33618;49.972;8.242;2022-12-31T13:21:01;2.95;;;1.30;;
47856;SDS011;33618;49.972;8.242;2022-12-31T13:23:32;1.50;;;1.35;;
47856;SDS011;33618;49.972;8.242;2022-12-31T13:28:44;3.03;;;1.58;;
47856;SDS011;33618;49.972;8.242;2022-12-31T13:31:16;2.67;;;1.17;;
47856;SDS011;33618;49.972;8.242;2022-12-31T13:33:51;1.77;;;1.50;;
47856;SDS011;33618;49.972;8.242;2022-12-31T13:36:24;2.88;;;1.30;;
47856;SDS011;33618;49.972;8.242;2022-12-31T13:38:54;1.50;;;1.02;;
47856;SDS011;33618;49.972;8.242;2022-12-31T13:41:28;0.93;;;0.93;;
47856;SDS011;33618;49.972;8.242;2022-12-31T13:51:48;2.13;;;1.30;;
47856;SDS011;33618;49.972;8.242;2022-12-31T13:54:32;1.67;;;1.20;;
47856;SDS011;33618;49.972;8.242;2022-12-31T14:00:19;1.20;;;1.10;;
47856;SDS011;33618;49.972;8.242;2022-12-31T14:02:52;1.20;;;1.10;;
47856;SDS011;33618;49.972;8.242;2022-12-31T14:08:04;2.08;;;1.10;;
47856;SDS011;33618;49.972;8.242;2022-12-31T14:10:47;1.30;;;1.20;;
47856;SDS011;33618;49.972;8.242;2022-12-31T14:16:32;1.20;;;1.10;;
47856;SDS011;33618;49.972;8.242;2022-12-31T14:22:16;1.20;;;1.10;;
47856;SDS011;33618;49.972;8.242;2022-12-31T14:25:04;1.10;;;1.00;;
47856;SDS011;33618;49.972;8.242;2022-12-31T14:27:47;1.20;;;1.10;;
47856;SDS011;33618;49.972;8.242;2022-12-31T14:30:21;2.35;;;1.02;;
47856;SDS011;33618;49.972;8.242;2022-12-31T14:35:44;1.42;;;1.27;;
47856;SDS011;33618;49.972;8.242;2022-12-31T14:40:55;1.65;;;1.08;;
47856;SDS011;33618;49.972;8.242;2022-12-31T14:43:39;3.47;;;1.77;;
47856;SDS011;33618;49.972;8.242;2022-12-31T14:46:40;1.63;;;1.30;;
47856;SDS011;33618;49.972;8.242;2022-12-31T14:49:32;4.85;;;2.40;;
47856;SDS011;33618;49.972;8.242;2022-12-31T14:52:06;1.60;;;1.35;;
47856;SDS011;33618;49.972;8.242;2022-12-31T14:54:43;1.45;;;1.13;;
47856;SDS011;33618;49.972;8.242;2022-12-31T14:57:10;1.20;;;1.10;;
47856;SDS011;33618;49.972;8.242;2022-12-31T14:59:58;3.05;;;1.30;;
47856;SDS011;33618;49.972;8.242;2022-12-31T15:02:28;2.35;;;1.20;;
47856;SDS011;33618;49.972;8.242;2022-12-31T15:10:18;1.40;;;1.30;;
47856;SDS011;33618;49.972;8.242;2022-12-31T15:15:35;2.67;;;1.20;;
47856;SDS011;33618;49.972;8.242;2022-12-31T15:20:56;2.53;;;1.25;;
47856;SDS011;33618;49.972;8.242;2022-12-31T15:29:01;1.88;;;1.23;;
47856;SDS011;33618;49.972;8.242;2022-12-31T15:31:31;1.33;;;1.17;;
47856;SDS011;33618;49.972;8.242;2022-12-31T15:34:01;2.47;;;1.33;;
47856;SDS011;33618;49.972;8.242;2022-12-31T15:36:34;1.50;;;1.23;;
47856;SDS011;33618;49.972;8.242;2022-12-31T15:41:42;1.40;;;1.30;;
47856;SDS011;33618;49.972;8.242;2022-12-31T15:44:32;1.85;;;1.20;;
47856;SDS011;33618;49.972;8.242;2022-12-31T15:48:05;1.15;;;1.08;;
47856;SDS011;33618;49.972;8.242;2022-12-31T15:50:14;1.30;;;1.20;;
47856;SDS011;33618;49.972;8.242;2022-12-31T15:58:04;2.65;;;1.40;;
47856;SDS011;33618;49.972;8.242;2022-12-31T16:03:21;1.33;;;1.23;;
47856;SDS011;33618;49.972;8.242;2022-12-31T16:05:52;1.20;;;1.13;;
47856;SDS011;33618;49.972;8.242;2022-12-31T16:08:24;1.60;;;1.10;;
47856;SDS011;33618;49.972;8.242;2022-12-31T16:10:56;1.77;;;1.08;;
47856;SDS011;33618;49.972;8.242;2022-12-31T16:13:25;0.90;;;0.90;;
47856;SDS011;33618;49.972;8.242;2022-12-31T16:16:04;2.33;;;1.10;;
47856;SDS011;33618;49.972;8.242;2022-12-31T16:18:37;2.05;;;1.70;;
47856;SDS011;33618;49.972;8.242;2022-12-31T16:24:05;1.75;;;1.60;;
47856;SDS011;33618;49.972;8.242;2022-12-31T16:26:53;1.30;;;1.20;;
47856;SDS011;33618;49.972;8.242;2022-12-31T16:29:24;3.67;;;1.80;;
47856;SDS011;33618;49.972;8.242;2022-12-31T16:31:52;32.58;;;4.15;;
47856;SDS011;33618;49.972;8.242;2022-12-31T16:34:23;1.95;;;1.52;;
47856;SDS011;33618;49.972;8.242;2022-12-31T16:37:05;5.75;;;3.90;;
47856;SDS011;33618;49.972;8.242;2022-12-31T16:40:07;1.85;;;1.23;;
47856;SDS011;33618;49.972;8.242;2022-12-31T16:42:44;1.65;;;1.55;;
47856;SDS011;33618;49.972;8.242;2022-12-31T16:45:16;4.07;;;2.30;;
47856;SDS011;33618;49.972;8.242;2022-12-31T16:48:00;3.30;;;1.80;;
47856;SDS011;33618;49.972;8.242;2022-12-31T16:50:45;3.10;;;1.20;;
47856;SDS011;33618;49.972;8.242;2022-12-31T16:53:18;1.40;;;1.30;;
47856;SDS011;33618;49.972;8.242;2022-12-31T16:55:51;2.08;;;1.20;;
47856;SDS011;33618;49.972;8.242;2022-12-31T16:58:23;2.00;;;1.52;;
47856;SDS011;33618;49.972;8.242;2022-12-31T17:00:58;2.08;;;1.50;;
47856;SDS011;33618;49.972;8.242;2022-12-31T17:03:35;2.35;;;1.10;;
47856;SDS011;33618;49.972;8.242;2022-12-31T17:08:40;1.75;;;1.65;;
47856;SDS011;33618;49.972;8.242;2022-12-31T17:22:25;1.87;;;1.40;;
47856;SDS011;33618;49.972;8.242;2022-12-31T17:25:04;2.03;;;1.50;;
47856;SDS011;33618;49.972;8.242;2022-12-31T17:27:32;2.67;;;1.52;;
47856;SDS011;33618;49.972;8.242;2022-12-31T17:35:41;2.65;;;1.15;;
47856;SDS011;33618;49.972;8.242;2022-12-31T17:40:52;1.30;;;1.20;;
47856;SDS011;33618;49.972;8.242;2022-12-31T17:43:35;1.60;;;1.15;;
47856;SDS011;33618;49.972;8.242;2022-12-31T17:46:11;3.03;;;1.40;;
47856;SDS011;33618;49.972;8.242;2022-12-31T17:48:43;1.40;;;1.20;;
47856;SDS011;33618;49.972;8.242;2022-12-31T17:51:15;2.47;;;1.20;;
47856;SDS011;33618;49.972;8.242;2022-12-31T17:53:49;26.35;;;13.93;;
47856;SDS011;33618;49.972;8.242;2022-12-31T17:56:17;2.13;;;1.38;;
47856;SDS011;33618;49.972;8.242;2022-12-31T18:01:16;2.08;;;1.40;;
47856;SDS011;33618;49.972;8.242;2022-12-31T18:03:44;2.65;;;1.20;;
47856;SDS011;33618;49.972;8.242;2022-12-31T18:06:15;1.27;;;1.17;;
47856;SDS011;33618;49.972;8.242;2022-12-31T18:08:48;1.20;;;1.10;;
47856;SDS011;33618;49.972;8.242;2022-12-31T18:11:17;1.10;;;1.00;;
47856;SDS011;33618;49.972;8.242;2022-12-31T18:13:48;4.35;;;1.48;;
47856;SDS011;33618;49.972;8.242;2022-12-31T18:16:15;1.70;;;1.50;;
47856;SDS011;33618;49.972;8.242;2022-12-31T18:18:43;2.85;;;1.50;;
47856;SDS011;33618;49.972;8.242;2022-12-31T18:21:18;2.47;;;1.33;;
47856;SDS011;33618;49.972;8.242;2022-12-31T18:23:58;2.03;;;1.42;;
47856;SDS011;33618;49.972;8.242;2022-12-31T18:26:25;2.00;;;1.40;;
47856;SDS011;33618;49.972;8.242;2022-12-31T18:28:59;2.38;;;1.30;;
47856;SDS011;33618;49.972;8.242;2022-12-31T18:31:37;2.30;;;1.40;;
47856;SDS011;33618;49.972;8.242;2022-12-31T18:34:04;4.63;;;1.60;;
47856;SDS011;33618;49.972;8.242;2022-12-31T19:38:19;1.40;;;1.20;;
47856;SDS011;33618;49.972;8.242;2022-12-31T19:40:51;1.88;;;1.60;;
47856;SDS011;33618;49.972;8.242;2022-12-31T19:43:19;2.67;;;1.30;;
47856;SDS011;33618;49.972;8.242;2022-12-31T19:45:48;2.13;;;1.30;;
47856;SDS011;33618;49.972;8.242;2022-12-31T19:48:17;1.88;;;1.50;;
47856;SDS011;33618;49.972;8.242;2022-12-31T19:50:51;1.95;;;1.85;;
47856;SDS011;33618;49.972;8.242;2022-12-31T19:53:23;4.95;;;3.53;;
47856;SDS011;33618;49.972;8.242;2022-12-31T19:55:52;4.10;;;3.17;;
47856;SDS011;33618;49.972;8.242;2022-12-31T19:58:20;2.95;;;2.65;;
47856;SDS011;33618;49.972;8.242;2022-12-31T20:00:51;1.60;;;1.50;;
47856;SDS011;33618;49.972;8.242;2022-12-31T20:03:27;1.40;;;1.30;;
47856;SDS011;33618;49.972;8.242;2022-12-31T20:06:02;2.90;;;1.52;;
47856;SDS011;33618;49.972;8.242;2022-12-31T20:08:34;1.55;;;1.30;;
47856;SDS011;33618;49.972;8.242;2022-12-31T20:11:10;2.28;;;1.65;;
47856;SDS011;33618;49.972;8.242;2022-12-31T20:13:45;3.22;;;1.40;;
47856;SDS011;33618;49.972;8.242;2022-12-31T20:16:14;2.35;;;1.58;;
47856;SDS011;33618;49.972;8.242;2022-12-31T20:18:46;1.33;;;1.17;;
47856;SDS011;33618;49.972;8.242;2022-12-31T20:21:15;3.13;;;2.80;;
47856;SDS011;33618;49.972;8.242;2022-12-31T20:23:44;2.30;;;2.03;;
47856;SDS011;33618;49.972;8.242;2022-12-31T20:26:12;2.88;;;2.08;;
47856;SDS011;33618;49.972;8.242;2022-12-31T20:28:39;3.80;;;1.20;;
47856;SDS011;33618;49.972;8.242;2022-12-31T20:31:06;2.17;;;1.60;;
47856;SDS011;33618;49.972;8.242;2022-12-31T20:33:35;1.30;;;1.20;;
47856;SDS011;33618;49.972;8.242;2022-12-31T21:38:05;1.70;;;1.60;;
47856;SDS011;33618;49.972;8.242;2022-12-31T21:40:33;1.73;;;1.50;;
47856;SDS011;33618;49.972;8.242;2022-12-31T21:43:00;2.13;;;1.77;;
47856;SDS011;33618;49.972;8.242;2022-12-31T21:45:27;7.10;;;2.80;;
47856;SDS011;33618;49.972;8.242;2022-12-31T21:47:57;2.30;;;2.10;;
47856;SDS011;33618;49.972;8.242;2022-12-31T21:50:43;3.47;;;1.80;;
47856;SDS011;33618;49.972;8.242;2022-12-31T21:53:11;3.92;;;2.30;;
47856;SDS011;33618;49.972;8.242;2022-12-31T21:55:38;4.72;;;3.08;;
47856;SDS011;33618;49.972;8.242;2022-12-31T21:58:28;5.32;;;3.97;;
47856;SDS011;33618;49.972;8.242;2022-12-31T22:00:55;5.38;;;4.45;;
47856;SDS011;33618;49.972;8.242;2022-12-31T22:11:05;3.88;;;2.00;;
47856;SDS011;33618;49.972;8.242;2022-12-31T22:13:35;4.50;;;3.63;;
47856;SDS011;33618;49.972;8.242;2022-12-31T22:16:04;3.65;;;2.38;;
47856;SDS011;33618;49.972;8.242;2022-12-31T22:18:33;4.50;;;2.50;;
47856;SDS011;33618;49.972;8.242;2022-12-31T22:21:20;4.13;;;3.72;;
47856;SDS011;33618;49.972;8.242;2022-12-31T22:23:50;2.60;;;1.80;;
47856;SDS011;33618;49.972;8.242;2022-12-31T22:26:19;2.20;;;2.00;;
47856;SDS011;33618;49.972;8.242;2022-12-31T22:28:52;1.80;;;1.70;;
47856;SDS011;33618;49.972;8.242;2022-12-31T22:31:24;2.63;;;2.30;;
47856;SDS011;33618;49.972;8.242;2022-12-31T22:33:57;5.55;;;3.85;;
47856;SDS011;33618;49.972;8.242;2022-12-31T23:38:15;129.10;;;77.00;;
47856;SDS011;33618;49.972;8.242;2022-12-31T23:40:44;116.30;;;69.15;;
47856;SDS011;33618;49.972;8.242;2022-12-31T23:43:17;97.45;;;51.95;;
47856;SDS011;33618;49.972;8.242;2022-12-31T23:45:47;66.47;;;36.88;;
47856;SDS011;33618;49.972;8.242;2022-12-31T23:48:18;55.00;;;31.92;;
47856;SDS011;33618;49.972;8.242;2022-12-31T23:50:46;45.63;;;26.45;;
47856;SDS011;33618;49.972;8.242;2022-12-31T23:53:19;36.22;;;21.48;;
47856;SDS011;33618;49.972;8.242;2022-12-31T23:55:52;40.17;;;23.95;;